Weather at Aeródromo Benagéber

Public forecast

Using degrees Celsius for public forecast. Weather courtesy of forecast.io.

Closest aviation weather report (METAR) to Aeródromo Benagéber

Closest report is Valencia Airport, 33.8 nm (62.6 km) ESE. Retrieved 2021/06/12 19:30 UTC (1 minute ago):

LEVC 121930Z 10006KT CAVOK 26/15 Q1020 NOSIG

Closest aviation forecast (TAF) to Aeródromo Benagéber

Closest forecast is Valencia Airport, 33.8 nm (62.6 km) ESE. Retrieved 2021/06/12 18:27 UTC (1 hour ago):

TAF LEVC 121700Z 1218/1318 07010KT CAVOK TX30/1313Z TN19/1306Z BECMG 1219/1221 VRB03KT BECMG 1309/1311 12010KT